Time;durP1;ratioP1;P1;durP2;ratioP2;P2;SDS_P1;SDS_P2;PMS_P1;PMS_P2;Temp;Humidity;BMP_temperature;BMP_pressure;BME280_temperature;BME280_humidity;BME280_pressure;Samples;Min_cycle;Max_cycle;Signal;HPM_P1;HPM_P2
2022/08/02 00:04:40;;;;;;;13.48;5.40;;;;;;;11.37;100.00;101892.31;10453225;28;20041;-78
2022/08/02 00:09:41;;;;;;;12.48;5.50;;;;;;;11.40;100.00;101899.28;10436690;28;20520;-80
2022/08/02 00:14:42;;;;;;;15.23;5.88;;;;;;;11.38;100.00;101899.50;10456888;28;20573;-74
2022/08/02 00:19:42;;;;;;;11.38;6.18;;;;;;;11.32;100.00;101897.69;10463231;28;20576;-79
2022/08/02 00:24:43;;;;;;;9.90;5.85;;;;;;;11.31;100.00;101899.59;10443746;28;20037;-79
2022/08/02 00:29:43;;;;;;;13.43;5.80;;;;;;;10.85;100.00;101823.09;10444584;28;20048;-80
2022/08/02 00:34:44;;;;;;;13.52;6.78;;;;;;;11.29;100.00;101895.41;10462812;28;20045;-80
2022/08/02 00:39:44;;;;;;;11.05;6.20;;;;;;;11.26;100.00;101882.06;10460885;28;20041;-79
2022/08/02 00:44:45;;;;;;;10.23;5.47;;;;;;;11.26;100.00;101891.19;10460365;28;20201;-79
2022/08/02 00:49:45;;;;;;;11.52;5.13;;;;;;;11.16;100.00;101876.28;10443403;28;20041;-80
2022/08/02 00:54:46;;;;;;;13.80;5.07;;;;;;;11.24;100.00;101900.75;10443731;28;20041;-77
2022/08/02 00:59:47;;;;;;;9.80;5.18;;;;;;;11.20;100.00;101885.78;10444208;28;20052;-79
2022/08/02 01:04:48;;;;;;;10.75;5.05;;;;;;;11.13;100.00;101896.06;10461963;28;20047;-80
2022/08/02 01:09:49;;;;;;;8.93;4.25;;;;;;;10.50;100.00;101832.03;10459850;28;20052;-79
2022/08/02 01:14:50;;;;;;;11.75;4.82;;;;;;;10.93;100.00;101883.38;10460087;28;20041;-80
2022/08/02 01:20:16;;;;;;;7.60;4.72;;;;;;;10.81;100.00;101872.31;10458611;28;20489;-81
2022/08/02 01:25:53;;;;;;;12.35;4.93;;;;;;;10.81;100.00;101893.50;10459872;28;20048;-80
2022/08/02 01:31:20;;;;;;;6.93;4.20;;;;;;;10.74;100.00;101888.06;10460037;28;20065;-78
2022/08/02 01:36:20;;;;;;;8.63;6.07;;;;;;;10.70;100.00;101882.16;10458985;28;20036;-80
2022/08/02 01:41:24;;;;;;;12.20;5.03;;;;;;;10.66;100.00;101880.94;10441576;28;20052;-80
2022/08/02 01:46:26;;;;;;;11.23;4.82;;;;;;;10.61;100.00;101874.47;10441814;28;20029;-79
2022/08/02 01:56:45;;;;;;;10.73;5.13;;;;;;;10.48;100.00;101867.22;10459566;28;20108;-79
2022/08/02 02:01:47;;;;;;;13.85;5.22;;;;;;;10.47;100.00;101860.00;10456713;28;20097;-78
2022/08/02 02:06:48;;;;;;;8.80;4.38;;;;;;;10.41;100.00;101860.94;10456960;28;20056;-78
2022/08/02 02:11:48;;;;;;;13.25;4.63;;;;;;;10.35;100.00;101859.91;10439744;28;20040;-79
2022/08/02 02:16:49;;;;;;;12.00;5.18;;;;;;;10.34;100.00;101866.50;10459356;28;20447;-79
2022/08/02 02:21:49;;;;;;;12.73;5.60;;;;;;;10.34;100.00;101861.00;10440783;28;20053;-79
2022/08/02 02:26:50;;;;;;;12.13;6.88;;;;;;;10.24;100.00;101833.97;10457711;28;20048;-79
2022/08/02 02:31:52;;;;;;;10.23;5.95;;;;;;;10.31;100.00;101839.44;10440468;28;20106;-79
2022/08/02 02:36:52;;;;;;;11.13;5.60;;;;;;;10.27;100.00;101821.66;10455625;28;20029;-78
2022/08/02 02:41:53;;;;;;;10.57;6.38;;;;;;;10.32;100.00;101812.78;10406801;28;20064;-78
2022/08/02 02:46:54;;;;;;;16.75;6.82;;;;;;;10.33;100.00;101786.91;10456390;28;20064;-79
2022/08/02 02:51:54;;;;;;;17.15;6.95;;;;;;;10.33;100.00;101789.66;10456333;28;20033;-79
2022/08/02 02:56:55;;;;;;;17.00;6.80;;;;;;;10.40;100.00;101813.28;10455166;28;20033;-78
2022/08/02 03:01:55;;;;;;;12.98;7.40;;;;;;;10.41;100.00;101811.38;10455200;28;20052;-80
2022/08/02 03:06:56;;;;;;;17.75;8.23;;;;;;;10.43;100.00;101818.31;10455027;28;20033;-77
2022/08/02 03:11:56;;;;;;;14.98;6.97;;;;;;;10.36;100.00;101809.31;10456505;28;20120;-79
2022/08/02 03:16:57;;;;;;;13.63;6.70;;;;;;;10.31;100.00;101809.16;10455580;28;20114;-79
2022/08/02 03:21:57;;;;;;;15.27;8.45;;;;;;;10.29;100.00;101803.91;10438537;28;20049;-79
2022/08/02 03:26:58;;;;;;;14.25;7.15;;;;;;;10.25;100.00;101807.28;10455893;28;20048;-78
2022/08/02 03:31:58;;;;;;;13.80;6.88;;;;;;;10.20;100.00;101794.22;10456487;28;20453;-78
2022/08/02 03:36:59;;;;;;;16.83;7.25;;;;;;;10.17;100.00;101783.69;10453885;28;20463;-78
2022/08/02 03:41:59;;;;;;;16.98;7.25;;;;;;;10.16;100.00;101773.72;10453647;28;20037;-77
2022/08/02 03:47:00;;;;;;;16.02;7.68;;;;;;;10.15;100.00;101780.31;10454237;28;20455;-70
2022/08/02 03:52:00;;;;;;;16.00;6.65;;;;;;;10.13;100.00;101776.09;10455458;28;20428;-77
2022/08/02 03:57:01;;;;;;;12.95;7.80;;;;;;;10.15;100.00;101766.56;10454036;28;20037;-77
2022/08/02 04:02:01;;;;;;;23.55;7.65;;;;;;;10.16;100.00;101761.91;10437579;28;20044;-77
2022/08/02 04:07:02;;;;;;;21.23;7.70;;;;;;;10.20;100.00;101763.13;10455082;28;20102;-79
2022/08/02 04:12:03;;;;;;;13.77;7.05;;;;;;;10.25;100.00;101763.25;10453847;28;20129;-78
2022/08/02 04:17:06;;;;;;;15.75;7.53;;;;;;;10.35;100.00;101766.34;10454376;28;20035;-78
2022/08/02 04:22:15;;;;;;;15.45;7.78;;;;;;;10.47;100.00;101760.91;10453711;28;20039;-78
2022/08/02 04:27:15;;;;;;;14.65;6.22;;;;;;;10.42;100.00;101738.75;10437766;28;20369;-77
2022/08/02 04:32:16;;;;;;;19.60;6.47;;;;;;;10.54;100.00;101756.13;10452991;28;20045;-78
2022/08/02 04:37:16;;;;;;;15.98;6.32;;;;;;;10.64;100.00;101755.59;10454294;28;20051;-77
2022/08/02 04:42:20;;;;;;;11.30;6.60;;;;;;;10.72;100.00;101757.19;10454880;28;20041;-78
2022/08/02 04:47:21;;;;;;;13.60;7.00;;;;;;;10.76;100.00;101758.38;10453632;28;20025;-77
2022/08/02 04:52:22;;;;;;;13.73;7.55;;;;;;;10.84;100.00;101758.06;10419633;28;20082;-77
2022/08/02 04:57:56;;;;;;;13.52;7.18;;;;;;;10.92;100.00;101763.25;10452578;28;20056;-77
2022/08/02 05:02:50;;;;;;;12.45;6.40;;;;;;;11.01;100.00;101763.72;10458922;28;20063;-78
2022/08/02 05:07:51;;;;;;;12.80;6.05;;;;;;;11.09;100.00;101764.22;10459366;28;20041;-77
2022/08/02 05:12:51;;;;;;;17.05;7.28;;;;;;;11.19;100.00;101762.81;10443497;28;20032;-76
2022/08/02 05:17:52;;;;;;;14.60;7.20;;;;;;;11.28;100.00;101761.38;10459511;28;20056;-77
2022/08/02 05:22:52;;;;;;;13.15;6.65;;;;;;;11.38;100.00;101745.09;10458851;28;20155;-76
2022/08/02 05:27:53;;;;;;;18.63;7.05;;;;;;;11.50;100.00;101759.75;10460862;28;20045;-77
2022/08/02 05:32:53;;;;;;;16.10;7.75;;;;;;;11.65;100.00;101744.63;10460158;28;20044;-78
2022/08/02 05:37:54;;;;;;;12.25;6.88;;;;;;;11.76;100.00;101735.53;10458316;28;20033;-75
2022/08/02 05:42:54;;;;;;;18.02;7.05;;;;;;;11.97;100.00;101747.03;10442579;28;20074;-76
2022/08/02 05:47:55;;;;;;;15.63;7.10;;;;;;;12.16;100.00;101733.94;10460742;28;20033;-77
2022/08/02 05:53:01;;;;;;;18.38;6.38;;;;;;;12.61;100.00;101739.53;10457926;28;20068;-76
2022/08/02 05:58:06;;;;;;;17.33;5.72;;;;;;;13.05;100.00;101723.19;10441359;28;20037;-77
2022/08/02 06:03:16;;;;;;;12.85;5.13;;;;;;;13.51;100.00;101712.06;10431119;28;20048;-77
2022/08/02 06:08:18;;;;;;;10.35;5.75;;;;;;;14.00;100.00;101736.28;10457679;28;20475;-77
2022/08/02 06:13:18;;;;;;;17.58;6.32;;;;;;;14.41;100.00;101737.63;10458669;28;20067;-78
2022/08/02 06:18:19;;;;;;;15.40;4.88;;;;;;;14.81;100.00;101741.16;10458307;28;20086;-78
2022/08/02 06:23:21;;;;;;;10.68;4.50;;;;;;;15.23;100.00;101723.78;10445084;28;20061;-78
2022/08/02 06:28:21;;;;;;;8.00;4.60;;;;;;;15.58;100.00;101728.75;10443515;28;20037;-78
2022/08/02 06:33:22;;;;;;;10.60;4.68;;;;;;;15.81;100.00;101716.44;10453403;28;20607;-76
2022/08/02 06:38:24;;;;;;;10.18;4.68;;;;;;;16.03;100.00;101723.78;10456073;28;20040;-78
2022/08/02 06:43:55;;;;;;;12.20;4.40;;;;;;;16.35;100.00;101729.19;10421502;28;20041;-79
2022/08/02 06:48:56;;;;;;;12.43;5.25;;;;;;;16.57;100.00;101709.50;10455947;28;20041;-79
2022/08/02 06:53:56;;;;;;;10.82;4.10;;;;;;;16.86;100.00;101703.47;10436569;28;20076;-83
2022/08/02 06:58:56;;;;;;;8.77;4.38;;;;;;;16.98;100.00;101708.78;10432403;28;20042;-70
2022/08/02 07:03:57;;;;;;;9.32;4.55;;;;;;;17.17;100.00;101709.06;10416522;28;20055;-82
2022/08/02 07:08:57;;;;;;;13.05;4.53;;;;;;;17.26;100.00;101701.81;10414417;28;20484;-81
2022/08/02 07:13:58;;;;;;;10.95;4.88;;;;;;;17.50;100.00;101711.25;10398485;28;20048;-84
2022/08/02 07:18:58;;;;;;;5.97;4.65;;;;;;;17.76;100.00;101688.94;10417013;28;20037;-83
2022/08/02 07:23:59;;;;;;;7.93;4.00;;;;;;;18.17;100.00;101677.66;10416032;28;20041;-82
2022/08/02 07:28:59;;;;;;;7.22;3.28;;;;;;;18.64;100.00;101667.88;10416385;28;20045;-76
2022/08/02 07:34:00;;;;;;;7.10;3.13;;;;;;;19.10;100.00;101664.78;10416855;28;20056;-78
2022/08/02 07:39:00;;;;;;;13.25;3.00;;;;;;;19.44;100.00;101663.88;10431374;28;20221;-80
2022/08/02 07:44:01;;;;;;;7.25;2.67;;;;;;;19.50;100.00;101662.72;10423633;28;20037;-80
2022/08/02 07:49:01;;;;;;;7.43;2.60;;;;;;;19.50;100.00;101664.66;10442344;28;20064;-77
2022/08/02 07:54:02;;;;;;;8.13;3.30;;;;;;;19.78;100.00;101654.59;10439849;28;20052;-78
2022/08/02 07:59:03;;;;;;;9.25;2.50;;;;;;;19.80;100.00;101641.16;10434078;28;20056;-80
2022/08/02 08:04:04;;;;;;;7.13;2.67;;;;;;;20.09;100.00;101632.69;10425206;28;20555;-80
2022/08/02 08:09:04;;;;;;;6.47;2.15;;;;;;;20.28;100.00;101634.69;10433329;28;20120;-79
2022/08/02 08:14:05;;;;;;;6.80;1.77;;;;;;;20.60;100.00;101616.31;10435942;28;20097;-82
2022/08/02 08:19:06;;;;;;;15.30;2.33;;;;;;;20.94;100.00;101621.63;10433794;28;20041;-82
2022/08/02 08:24:07;;;;;;;8.38;2.10;;;;;;;21.16;100.00;101621.78;10449686;28;20505;-81
2022/08/02 08:29:07;;;;;;;5.25;1.65;;;;;;;21.21;98.34;101626.47;10455332;28;20052;-79
2022/08/02 08:34:07;;;;;;;2.17;1.13;;;;;;;21.45;94.00;101606.69;10457517;28;20045;-81
2022/08/02 08:39:08;;;;;;;5.18;1.25;;;;;;;21.64;93.34;101595.41;10462461;28;20055;-80
2022/08/02 08:44:08;;;;;;;4.90;1.00;;;;;;;21.74;90.69;101580.34;10463404;28;20040;-77
2022/08/02 08:49:19;;;;;;;5.07;1.35;;;;;;;22.12;87.63;101580.91;10462125;28;20032;-79
2022/08/02 08:54:22;;;;;;;5.80;1.17;;;;;;;22.46;88.23;101573.13;10461153;28;20037;-80
2022/08/02 08:59:22;;;;;;;3.45;1.30;;;;;;;22.65;82.24;101551.31;10445024;28;20037;-78
2022/08/02 09:04:23;;;;;;;1.88;0.70;;;;;;;22.76;78.24;101555.50;10461702;28;20413;-81
2022/08/02 09:09:23;;;;;;;5.00;1.08;;;;;;;22.73;78.85;101556.13;10462680;28;20064;-78
2022/08/02 09:14:28;;;;;;;3.83;0.70;;;;;;;22.77;73.13;101540.31;10462476;28;20041;-78
2022/08/02 09:19:28;;;;;;;2.90;0.70;;;;;;;23.12;71.08;101540.53;10460945;28;20090;-79
2022/08/02 09:24:29;;;;;;;4.97;1.17;;;;;;;23.23;69.35;101521.41;10462480;28;20067;-79
2022/08/02 09:29:29;;;;;;;3.15;0.77;;;;;;;23.37;69.15;101538.97;10443631;28;20037;-79
2022/08/02 09:34:46;;;;;;;3.00;0.80;;;;;;;23.59;65.41;101514.75;10443797;28;20083;-77
2022/08/02 09:39:46;;;;;;;;;;;;;;;23.60;64.38;101501.53;10444226;28;20041;-79
2022/08/02 09:44:57;;;;;;;3.10;0.70;;;;;;;23.97;67.14;101522.59;10446851;28;20471;-76
2022/08/02 09:49:58;;;;;;;2.05;0.90;;;;;;;24.55;65.75;101517.63;10460130;28;20068;-77
2022/08/02 09:55:03;;;;;;;2.58;0.80;;;;;;;25.07;67.68;101511.00;10461115;28;20044;-81
2022/08/02 10:00:11;;;;;;;2.83;0.95;;;;;;;25.47;63.67;101507.88;10461515;28;20048;-76
2022/08/02 10:05:11;;;;;;;1.52;0.70;;;;;;;25.43;63.25;101490.81;10442377;28;20098;-78
2022/08/02 10:10:12;;;;;;;3.15;1.10;;;;;;;25.75;64.10;101508.16;10458313;28;20067;-78
2022/08/02 10:15:12;;;;;;;4.25;1.00;;;;;;;25.12;66.71;101494.75;10458780;28;20041;-77
2022/08/02 10:20:12;;;;;;;2.30;1.08;;;;;;;24.90;65.58;101497.81;10458204;28;20320;-77
2022/08/02 10:25:13;;;;;;;2.47;1.00;;;;;;;25.13;67.80;101471.03;10442233;28;20048;-78
2022/08/02 10:30:13;;;;;;;4.60;1.42;;;;;;;25.47;66.21;101488.97;10459885;28;20040;-80
2022/08/02 10:35:18;;;;;;;2.33;1.00;;;;;;;25.60;68.05;101489.88;10440749;28;20052;-76
2022/08/02 10:40:27;;;;;;;3.30;1.38;;;;;;;25.90;67.71;101487.88;10441219;28;20033;-78
2022/08/02 10:45:27;;;;;;;3.83;1.10;;;;;;;26.05;66.88;101491.22;10457142;28;20477;-79
2022/08/02 10:50:46;;;;;;;2.42;1.15;;;;;;;26.50;65.81;101465.03;10454770;28;20029;-79
2022/08/02 10:55:47;;;;;;;4.22;1.38;;;;;;;26.53;65.59;101475.66;10460124;28;20044;-76
2022/08/02 11:00:48;;;;;;;3.38;1.23;;;;;;;26.61;67.06;101460.63;10458281;28;20040;-77
2022/08/02 11:06:06;;;;;;;5.15;1.60;;;;;;;27.08;68.34;101473.50;10440672;28;20093;-76
2022/08/02 11:11:09;;;;;;;5.18;1.45;;;;;;;27.66;66.13;101465.72;10456708;28;20037;-76
2022/08/02 11:16:10;;;;;;;6.47;1.80;;;;;;;27.23;64.91;101449.41;10458166;28;20029;-78
2022/08/02 11:21:29;;;;;;;8.30;1.88;;;;;;;27.08;66.64;101451.75;10458813;28;20025;-76
2022/08/02 11:26:29;;;;;;;4.95;1.70;;;;;;;27.73;68.46;101459.44;10456116;28;20564;-77
2022/08/02 11:31:40;;;;;;;3.85;2.00;;;;;;;27.75;64.90;101412.66;10457083;28;20554;-75
2022/08/02 11:36:48;;;;;;;7.68;2.10;;;;;;;28.00;64.63;101445.72;10457387;28;20044;-78
2022/08/02 11:41:53;;;;;;;3.75;2.20;;;;;;;27.96;67.13;101462.59;10457351;28;20033;-77
2022/08/02 11:46:55;;;;;;;8.15;2.00;;;;;;;28.26;65.55;101465.06;10458283;28;20040;-76
2022/08/02 11:51:59;;;;;;;5.20;2.10;;;;;;;28.46;64.95;101452.66;10457601;28;20040;-77
2022/08/02 11:57:17;;;;;;;5.63;2.08;;;;;;;28.36;63.09;101396.56;10457078;28;20040;-77
2022/08/02 12:02:22;;;;;;;4.32;1.80;;;;;;;28.91;62.72;101440.13;10455200;28;20067;-76
2022/08/02 12:07:33;;;;;;;6.90;2.30;;;;;;;28.99;62.29;101446.78;10455057;28;20108;-75
2022/08/02 12:12:52;;;;;;;7.10;2.13;;;;;;;29.39;62.24;101403.22;10461379;28;20048;-76
2022/08/02 12:23:11;;;;;;;3.40;1.80;;;;;;;29.03;60.47;101422.19;10466431;28;20041;-78
2022/08/02 12:28:21;;;;;;;4.75;1.70;;;;;;;28.64;60.16;101413.53;10415529;28;21297;-79
2022/08/02 12:33:21;;;;;;;2.88;2.05;;;;;;;28.55;62.63;101427.06;10393565;28;20041;-82
2022/08/02 12:38:22;;;;;;;3.55;1.77;;;;;;;28.62;63.34;101435.72;10390737;28;20537;-79
2022/08/02 12:43:22;;;;;;;4.20;1.80;;;;;;;28.63;64.60;101440.22;10461584;28;20036;-79
2022/08/02 12:48:34;;;;;;;4.07;1.88;;;;;;;28.58;62.01;101426.31;10427437;28;20037;-78
2022/08/02 12:53:35;;;;;;;3.72;1.75;;;;;;;28.40;62.53;101430.66;10442926;28;20048;-79
2022/08/02 12:58:47;;;;;;;4.65;1.77;;;;;;;28.12;64.21;101397.56;10443149;28;20044;-80
2022/08/02 13:03:47;;;;;;;3.58;1.70;;;;;;;28.76;63.84;101421.94;10428164;28;20033;-81
2022/08/02 13:08:48;;;;;;;6.20;1.80;;;;;;;29.08;60.71;101404.06;10425931;28;20505;-80
2022/08/02 13:13:48;;;;;;;4.35;1.83;;;;;;;29.06;62.68;101429.94;10400448;28;20561;-81
2022/08/02 13:18:49;;;;;;;2.53;1.30;;;;;;;28.69;63.27;101426.59;10459034;28;20063;-80
2022/08/02 13:23:49;;;;;;;2.25;0.95;;;;;;;27.74;63.58;101421.47;10459226;28;20094;-81
2022/08/02 13:28:50;;;;;;;2.95;1.13;;;;;;;28.10;63.51;101416.91;10423478;28;20029;-82
2022/08/02 13:33:50;;;;;;;1.33;1.00;;;;;;;27.92;64.98;101402.25;10456212;28;20075;-82
2022/08/02 13:38:50;;;;;;;5.18;1.85;;;;;;;27.81;65.29;101437.88;10457380;28;20041;-84
2022/08/02 13:43:51;;;;;;;3.45;1.80;;;;;;;27.25;66.85;101393.34;10459228;28;20682;-87
2022/08/02 13:48:51;;;;;;;2.53;1.60;;;;;;;27.34;67.34;101442.91;10472685;28;20029;-87
2022/08/02 13:53:52;;;;;;;4.32;1.70;;;;;;;27.32;68.53;101439.59;10422937;28;20056;-86
2022/08/02 13:58:53;;;;;;;2.10;1.70;;;;;;;27.63;69.56;101438.13;10423167;28;20044;-86
2022/08/02 14:03:53;;;;;;;2.80;1.95;;;;;;;27.31;67.69;101421.00;10439498;28;20404;-80
2022/08/02 14:08:54;;;;;;;5.30;2.47;;;;;;;26.77;69.07;101418.41;10360703;28;1154885;-85
2022/08/02 14:13:54;;;;;;;2.90;1.52;;;;;;;26.91;70.79;101426.53;10446267;28;20061;-87
2022/08/02 14:18:56;;;;;;;2.97;2.63;;;;;;;26.63;71.17;101415.94;10457167;28;20029;-86
2022/08/02 14:23:56;;;;;;;5.45;2.20;;;;;;;26.70;71.26;101430.28;10407914;28;20037;-84
2022/08/02 14:28:57;;;;;;;3.38;2.33;;;;;;;26.17;72.24;101423.56;10423581;28;20037;-89
2022/08/02 14:33:57;;;;;;;4.25;2.30;;;;;;;26.00;73.87;101424.53;10458163;28;20083;-90
2022/08/02 14:38:58;;;;;;;4.75;2.40;;;;;;;26.05;75.29;101415.06;10427464;28;20473;-86
2022/08/02 14:44:04;;;;;;;3.30;2.10;;;;;;;25.88;76.44;101411.19;10412438;28;20037;-87
2022/08/02 14:49:06;;;;;;;4.82;2.22;;;;;;;25.82;76.25;101409.75;10446334;28;20036;-90
2022/08/02 14:54:07;;;;;;;5.80;2.22;;;;;;;26.21;76.39;101401.94;10412626;28;20041;-86
2022/08/02 14:59:07;;;;;;;3.15;2.15;;;;;;;26.53;76.61;101400.22;10444725;28;20029;-86
2022/08/02 15:04:08;;;;;;;4.50;2.85;;;;;;;26.49;75.41;101396.44;10428816;28;20063;-89
2022/08/02 15:09:08;;;;;;;4.13;2.42;;;;;;;26.42;75.80;101413.16;10440927;28;20053;-90
2022/08/02 15:14:09;;;;;;;6.25;2.72;;;;;;;26.36;78.03;101403.25;10393724;28;20052;-89
2022/08/02 15:19:09;;;;;;;7.13;3.65;;;;;;;25.91;76.47;101358.94;10394774;28;20382;-89
2022/08/02 15:24:10;;;;;;;6.63;2.70;;;;;;;26.30;78.41;101388.53;10426768;28;20393;-84
2022/08/02 15:29:10;;;;;;;4.28;2.60;;;;;;;26.63;77.22;101379.22;10435616;28;20051;-89
2022/08/02 15:34:11;;;;;;;9.68;3.42;;;;;;;27.18;75.51;101372.13;10408136;28;20045;-87
2022/08/02 15:39:12;;;;;;;6.20;3.08;;;;;;;27.73;73.83;101354.78;10413723;28;20101;-89
2022/08/02 15:44:12;;;;;;;4.38;2.88;;;;;;;28.50;71.37;101333.84;10399962;28;20041;-83
2022/08/02 15:49:13;;;;;;;6.70;3.30;;;;;;;29.16;68.87;101352.06;10400776;28;20037;-86
2022/08/02 15:54:13;;;;;;;5.40;3.38;;;;;;;29.14;67.46;101354.44;10405154;28;20041;-84
2022/08/02 15:59:14;;;;;;;5.00;3.22;;;;;;;28.89;69.11;101331.16;10422424;28;20041;-84
2022/08/02 16:04:15;;;;;;;5.75;3.20;;;;;;;29.00;69.09;101325.72;10380246;28;20044;-85
2022/08/02 16:09:15;;;;;;;4.80;3.38;;;;;;;30.35;65.89;101319.22;10378362;28;20393;-78
2022/08/02 16:14:16;;;;;;;5.55;3.28;;;;;;;31.04;63.17;101304.06;10432200;28;20060;-83
2022/08/02 16:19:16;;;;;;;5.25;3.13;;;;;;;30.59;64.64;101334.22;10388678;28;20037;-92
2022/08/02 16:24:17;;;;;;;6.57;4.22;;;;;;;29.37;67.03;101327.03;10417581;28;20038;-90
2022/08/02 16:29:18;;;;;;;6.40;3.50;;;;;;;28.45;69.09;101348.28;10401368;28;20041;-86
2022/08/02 16:34:19;;;;;;;4.70;3.17;;;;;;;27.97;72.15;101346.22;10436524;28;20044;-91
2022/08/02 16:39:19;;;;;;;4.68;3.83;;;;;;;27.76;73.57;101351.22;10454726;28;20500;-87
2022/08/02 16:44:20;;;;;;;3.78;2.70;;;;;;;27.60;73.89;101341.84;10452722;28;20037;-87
2022/08/02 16:49:21;;;;;;;6.57;3.45;;;;;;;27.15;75.79;101350.22;10422231;28;20114;-95
2022/08/02 16:54:21;;;;;;;4.97;3.50;;;;;;;26.86;75.89;101350.50;10425089;28;20036;-92
2022/08/02 16:59:21;;;;;;;3.95;2.50;;;;;;;26.72;75.96;101348.03;10437771;28;20049;-89
2022/08/02 17:04:22;;;;;;;6.45;2.97;;;;;;;26.57;77.50;101352.38;10408494;28;20041;-84
2022/08/02 17:09:24;;;;;;;3.83;2.58;;;;;;;26.42;77.79;101351.06;10419383;28;20056;-91
2022/08/02 17:14:24;;;;;;;3.83;2.10;;;;;;;26.25;76.91;101337.97;10414405;28;20074;-89
2022/08/02 17:19:25;;;;;;;3.47;1.77;;;;;;;26.05;75.30;101347.34;10407299;28;20119;-94
2022/08/02 17:24:25;;;;;;;3.38;1.80;;;;;;;25.94;78.07;101346.94;10439620;28;20037;-88
2022/08/02 17:29:26;;;;;;;3.95;3.15;;;;;;;25.81;78.42;101357.31;10406762;28;20033;-93
2022/08/02 17:34:27;;;;;;;4.00;1.92;;;;;;;25.70;79.69;101378.66;10422485;28;20584;-86
2022/08/02 17:39:28;;;;;;;6.63;2.63;;;;;;;25.68;77.88;101384.66;10434526;28;20472;-88
2022/08/02 17:44:28;;;;;;;3.67;2.22;;;;;;;25.74;77.46;101376.81;10386176;28;20409;-87
2022/08/02 17:49:29;;;;;;;3.13;2.25;;;;;;;25.78;75.70;101356.03;10420212;28;20541;-86
2022/08/02 17:54:29;;;;;;;3.75;1.52;;;;;;;25.87;76.26;101364.41;10399283;28;20486;-77
2022/08/02 17:59:30;;;;;;;7.65;1.60;;;;;;;25.95;74.24;101359.88;10399752;28;20029;-85
2022/08/02 18:04:30;;;;;;;3.95;1.70;;;;;;;26.02;74.74;101364.94;10399654;28;20056;-84
2022/08/02 18:09:31;;;;;;;2.92;1.70;;;;;;;25.76;77.21;101366.00;10400287;28;20033;-87
2022/08/02 18:14:32;;;;;;;5.03;1.90;;;;;;;24.94;77.09;101298.84;10399206;28;20131;-86
2022/08/02 18:19:32;;;;;;;5.45;1.75;;;;;;;24.96;79.83;101381.81;10398153;28;20033;-86
2022/08/02 18:24:32;;;;;;;4.05;1.90;;;;;;;24.62;83.66;101385.66;10426511;28;20048;-87
2022/08/02 18:29:33;;;;;;;6.32;2.25;;;;;;;24.30;84.33;101387.88;10426306;28;20043;-84
2022/08/02 18:34:34;;;;;;;3.58;1.98;;;;;;;24.23;86.49;101404.44;10423228;28;20507;-85
2022/08/02 18:39:35;;;;;;;5.28;2.30;;;;;;;24.15;88.18;101391.22;10430552;28;20041;-84
2022/08/02 18:44:35;;;;;;;5.25;2.00;;;;;;;24.07;89.71;101397.69;10424906;28;20253;-77
2022/08/02 18:49:36;;;;;;;5.68;2.28;;;;;;;23.95;91.18;101399.19;10439250;28;20059;-84
2022/08/02 18:54:36;;;;;;;3.88;2.53;;;;;;;23.70;93.88;101374.72;10414097;28;20128;-84
2022/08/02 18:59:37;;;;;;;3.67;2.67;;;;;;;23.59;94.54;101396.72;10430902;28;20025;-83
2022/08/02 19:04:42;;;;;;;7.47;2.35;;;;;;;23.40;96.94;101405.47;10413696;28;20033;-83
2022/08/02 19:09:42;;;;;;;5.88;3.28;;;;;;;23.14;99.74;101411.03;10454066;28;20627;-85
2022/08/02 19:14:43;;;;;;;5.55;2.25;;;;;;;22.98;100.00;101405.81;10419237;28;20071;-86
2022/08/02 19:19:43;;;;;;;11.25;3.05;;;;;;;22.91;100.00;101411.09;10410458;28;20635;-84
2022/08/02 19:24:45;;;;;;;5.07;2.60;;;;;;;22.70;100.00;101408.03;10454145;28;20497;-82
2022/08/02 19:29:46;;;;;;;6.38;3.00;;;;;;;22.62;100.00;101414.44;10439232;28;20503;-88
2022/08/02 19:34:47;;;;;;;8.00;2.35;;;;;;;22.51;100.00;101407.44;10412221;28;20319;-87
2022/08/02 19:39:47;;;;;;;6.72;2.80;;;;;;;22.40;100.00;101415.31;10423292;28;20025;-86
2022/08/02 19:44:48;;;;;;;6.75;3.40;;;;;;;22.14;100.00;101420.75;10419438;28;20121;-86
2022/08/02 19:49:48;;;;;;;6.78;2.75;;;;;;;22.04;100.00;101423.81;10404859;28;20040;-84
2022/08/02 19:54:49;;;;;;;6.53;3.45;;;;;;;21.82;100.00;101425.44;10434286;28;20167;-85
2022/08/02 19:59:49;;;;;;;7.43;3.38;;;;;;;21.62;100.00;101397.91;10422287;28;20041;-86
2022/08/02 20:04:50;;;;;;;15.48;4.32;;;;;;;21.49;100.00;101408.03;10420704;28;20080;-86
2022/08/02 20:09:51;;;;;;;9.75;3.42;;;;;;;21.46;100.00;101423.50;10396662;28;20108;-88
2022/08/02 20:14:53;;;;;;;10.80;3.65;;;;;;;21.36;100.00;101432.09;10424775;28;20386;-86
2022/08/02 20:19:53;;;;;;;10.25;3.67;;;;;;;21.11;100.00;101405.47;10410845;28;20157;-87
2022/08/02 20:24:54;;;;;;;8.60;3.38;;;;;;;21.06;100.00;101431.59;10381699;28;20038;-84
2022/08/02 20:29:54;;;;;;;10.63;3.15;;;;;;;20.92;100.00;101428.00;10414446;28;20192;-76
2022/08/02 20:34:55;;;;;;;9.68;2.75;;;;;;;20.80;100.00;101431.28;10434632;28;20072;-83
2022/08/02 20:39:55;;;;;;;7.93;3.15;;;;;;;20.67;100.00;101438.53;10458283;28;20029;-86
2022/08/02 20:44:56;;;;;;;12.48;3.75;;;;;;;20.54;100.00;101442.09;10431849;28;20099;-86
2022/08/02 20:55:17;;;;;;;7.43;3.85;;;;;;;20.26;100.00;101435.63;10449934;28;20033;-86
2022/08/02 21:00:17;;;;;;;10.15;4.68;;;;;;;20.13;100.00;101443.69;10415052;28;20036;-84
2022/08/02 21:05:18;;;;;;;16.77;4.35;;;;;;;20.02;100.00;101444.97;10443463;28;20497;-84
2022/08/02 21:10:18;;;;;;;9.55;4.20;;;;;;;19.87;100.00;101429.28;10414908;28;20109;-84
2022/08/02 21:15:19;;;;;;;8.77;3.72;;;;;;;19.79;100.00;101431.94;10397861;28;20037;-84
2022/08/02 21:20:20;;;;;;;11.93;4.10;;;;;;;19.66;100.00;101414.78;10427304;28;20048;-84
2022/08/02 21:25:20;;;;;;;12.95;5.38;;;;;;;19.51;100.00;101412.19;10445796;28;20059;-85
2022/08/02 21:30:21;;;;;;;10.48;5.25;;;;;;;19.40;100.00;101419.88;10414147;28;20029;-81
2022/08/02 21:35:22;;;;;;;9.40;5.68;;;;;;;19.28;100.00;101408.31;10441993;28;20508;-74
2022/08/02 21:40:23;;;;;;;7.47;5.00;;;;;;;19.19;100.00;101408.19;10461686;28;20040;-83
2022/08/02 21:45:23;;;;;;;10.82;6.43;;;;;;;19.05;100.00;101384.91;10430601;28;20033;-83
2022/08/02 21:50:24;;;;;;;8.98;6.03;;;;;;;19.06;100.00;101397.72;10461330;28;20029;-82
2022/08/02 21:55:24;;;;;;;9.55;5.53;;;;;;;18.99;100.00;101403.69;10445094;28;20036;-82
2022/08/02 22:00:25;;;;;;;13.70;6.72;;;;;;;18.96;100.00;101409.88;10460165;28;20094;-82
2022/08/02 22:05:26;;;;;;;15.60;6.30;;;;;;;18.90;100.00;101422.22;10428140;28;20045;-83
2022/08/02 22:10:26;;;;;;;9.13;6.05;;;;;;;18.74;100.00;101408.41;10441417;28;20044;-86
2022/08/02 22:15:27;;;;;;;7.93;5.10;;;;;;;18.68;100.00;101409.59;10443075;28;20097;-84
2022/08/02 22:20:27;;;;;;;11.48;5.55;;;;;;;18.51;100.00;101398.91;10443506;28;20071;-77
2022/08/02 22:25:28;;;;;;;9.88;4.72;;;;;;;18.53;100.00;101418.97;10444304;28;20041;-84
2022/08/02 22:30:28;;;;;;;15.23;4.57;;;;;;;18.44;100.00;101411.53;10420239;28;20047;-85
2022/08/02 22:35:29;;;;;;;12.18;4.65;;;;;;;18.44;100.00;101419.88;10401348;28;20088;-86
2022/08/02 22:40:29;;;;;;;9.55;5.15;;;;;;;18.35;100.00;101420.56;10385672;28;20025;-86
2022/08/02 22:45:30;;;;;;;8.80;4.57;;;;;;;18.31;100.00;101422.25;10401549;28;20045;-87
2022/08/02 22:50:30;;;;;;;9.85;4.78;;;;;;;18.28;100.00;101422.84;10401975;28;20053;-84
2022/08/02 22:55:31;;;;;;;13.57;4.68;;;;;;;18.19;100.00;101430.19;10401929;28;20083;-86
2022/08/02 23:00:31;;;;;;;8.02;4.72;;;;;;;18.04;100.00;101410.78;10384786;28;20030;-85
2022/08/02 23:05:32;;;;;;;11.98;5.68;;;;;;;18.04;100.00;101422.75;10402098;28;20774;-85
2022/08/02 23:10:33;;;;;;;8.55;4.90;;;;;;;18.00;100.00;101424.47;10400748;28;20049;-80